Here is the Quick Look data you requested

The Data originates at the National Weather Service, and is made available here by the UAlbany Department of Atmospheric and Environmental Sciences

Surface Observations

KDTW 191053Z 31016G25KT 10SM FEW020 OVC030 03/M03 A2974 RMK AO2 SLP068
 T00281033 $=
KDTW 191153Z 30011KT 10SM SCT025 OVC035 02/M03 A2977 RMK AO2 PK WND 31026/1054
 SLP079 60000 70108 T00221028 10039 20022 53030 $=
KDTW 191253Z 27011KT 10SM SCT035 BKN045 02/M02 A2979 RMK AO2 SLP087 T00171022 $=
KDTW 191353Z 27012G19KT 9SM -SN FEW035 SCT050 OVC060 02/M02 A2982 RMK AO2 SNB48
 SLP097 P0000 T00221022 $=
KDTW 191425Z 28010KT 6SM -SN BKN025 OVC040 02/M02 A2982 RMK AO2 P0000 T00221017
 $=
KDTW 191453Z 27011G19KT 5SM -SN FEW015 SCT025 OVC045 02/M01 A2983 RMK AO2
 SLP101 P0000 60000 T00221006 51020 $=
KDTW 191553Z 28012KT 10SM SCT025 OVC055 02/M01 A2985 RMK AO2 SNE35 SLP108 P0000
 T00221011 $=
KDTW 191653Z 28015G24KT 9SM -SN SCT040 OVC050 02/M02 A2985 RMK AO2 SNB07E24B47
 SLP107 P0000 T00221022 $=
KDTW 191753Z 29014G20KT 10SM SCT040 OVC055 03/M04 A2984 RMK AO2 SNE02 SLP103
 P0000 60000 T00281039 10028 20017 50003 $=
KDTW 191853Z 28016G22KT 10SM FEW030 SCT040 OVC055 02/M04 A2986 RMK AO2 SLP110
 T00221044 $=
KDTW 191953Z 28016G22KT 10SM FEW035 SCT045 OVC060 02/M04 A2987 RMK AO2 SNB22E40
 SLP115 P0000 T00171039 $=
KDTW 192053Z 27013G21KT 10SM FEW035 SCT045 BKN055 02/M04 A2989 RMK AO2 SNB42E49
 SLP122 P0000 60000 T00221044 52017 $=
KDTW 192153Z 28017G23KT 10SM BKN045 OVC055 01/M06 A2991 RMK AO2 SLP129
 T00111061 $=
KDTW 192253Z 28014G23KT 10SM OVC045 01/M07 A2993 RMK AO2 PK WND 27026/2200
 SLP132 T00061072 $=
KDTW 192353Z 27011KT 10SM OVC037 00/M07 A2993 RMK AO2 SLP132 60000 T00001067
 10028 20000 51013 $=
KDTW 200011Z 28015KT 10SM OVC037 00/M07 A2993 RMK AO2 T00001067 $=
KDTW 200053Z 27011G18KT 10SM OVC037 00/M07 A2997 RMK AO2 PK WND 29026/0036
 SLP146 T00001072 $=
KDTW 200153Z 26014G20KT 10SM SCT035 OVC150 M01/M07 A2998 RMK AO2 SLP149
 T10061072 $=
KDTW 200253Z 27009KT 10SM BKN035 OVC150 M01/M07 A3000 RMK AO2 SLP156 T10061072
 51023 $=
KDTW 200353Z 24007KT 10SM BKN035 OVC150 M01/M07 A3001 RMK AO2 SLP160 T10061067
 $=
KDTW 200453Z 23007KT 10SM BKN035 OVC130 M01/M06 A3002 RMK AO2 SLP164 T10111061
 400391011 $=
KDTW 200553Z 23008KT 10SM SCT035 OVC120 M01/M06 A3002 RMK AO2 SLP163 T10111056
 10000 21011 51007 $=
KDTW 200653Z 22009KT 10SM SCT035 OVC110 M01/M05 A3002 RMK AO2 SLP164 T10111050
 $=
KDTW 200753Z 21010KT 10SM FEW035 BKN110 OVC220 M01/M05 A3002 RMK AO2 SLP164
 T10111050 $=
KDTW 200853Z 22009KT 10SM SCT110 BKN220 M02/M06 A3003 RMK AO2 SLP168 T10171056
 53003 $=
KDTW 200953Z 22011KT 10SM BKN080 OVC220 M01/M05 A3002 RMK AO2 SLP164 T10111050
 $=
KDTW 201053Z 22011KT 10SM BKN080 OVC200 M01/M04 A3003 RMK AO2 SLP168 T10111044
 $=
KDTW 201153Z 21010KT 10SM SCT080 OVC200 M02/M04 A3004 RMK AO2 SLP171 T10171044
 11006 21017 53003 $=
KDTW 201253Z 21010KT 10SM SCT080 BKN120 BKN200 M02/M05 A3005 RMK AO2 SLP175
 T10171050 $=
KDTW 201353Z 22015KT 10SM FEW120 BKN200 00/M05 A3005 RMK AO2 SLP183 T00001050=
KDTW 201453Z 22015KT 10SM SCT200 02/M05 A3004 RMK AO2 SLP177 T00221050 50005=
KDTW 201553Z 21016KT 10SM BKN200 04/M04 A3002 RMK AO2 SLP173 T00441039=
KDTW 201653Z 21016KT 10SM BKN200 06/M03 A2999 RMK AO2 PK WND 21026/1624 SLP162
 T00611033=
KDTW 201753Z 21018G24KT 10SM BKN200 08/M02 A2995 RMK AO2 SLP148 T00781022 10078
 21017 58028=
KDTW 201853Z 21021G27KT 10SM BKN200 08/M02 A2993 RMK AO2 PK WND 21029/1841
 SLP138 T00831022=
KDTW 201953Z 22017KT 10SM BKN200 09/M02 A2991 RMK AO2 PK WND 22029/1938 SLP132
 T00891022=
KDTW 202053Z 21020G28KT 10SM BKN220 08/M02 A2990 RMK AO2 PK WND 22030/2007
 SLP130 T00831017 56018=
KDTW 202153Z 21019G25KT 10SM BKN220 07/M02 A2989 RMK AO2 PK WND 21028/2110
 SLP127 T00721017=
KDTW 202253Z 19014KT 10SM SCT220 07/M02 A2988 RMK AO2 PK WND 21027/2210 SLP124
 T00671017=